Nearby METAR Reports

 

KMTN - Baltimore/Martin, Maryland, USA
Distance from station: SSE 8mi, 13km
Updated: Fri, 27-Feb-2015 8:45pm EST
Clear
Clear
 Wind from calm
Wind: Calm
Temperature: 25°F , -4°C
Dew Point: 12°F , -11°C
Humidity: 59%
Barometer: 30.61 inHg , 1036.6 hPa
Clouds: Clear
Visibility: 10 miles , 16 km
2015/02/28 01:45 KMTN 280145Z 00000KT 10SM SKC M04/M11 A3061
KDMH - Baltimore/Dwntwn, Maryland, USA
Distance from station: SW 12mi, 19km
Updated: Fri, 27-Feb-2015 7:54pm EST

 
Temperature: 28°F , -2°C
Dew Point: 9°F , -13°C
Humidity: 43%
Barometer: 30.56 inHg , 1034.9 hPa
2015/02/28 00:54 KDMH 280054Z AUTO M02/M13 A3056 RMK AO1 SLP347 T10221133
 
KBWI - Balto/Wash Intl, Maryland, USA
Distance from station: SSW 20mi, 33km
Updated: Fri, 27-Feb-2015 7:54pm EST
Clear
Clear
 Wind from NW
Wind: NW 6 mph , 9 km/h
Temperature: 27°F , -3°C
Wind Chill: 20°F , -7°C
Dew Point: 7°F , -14°C
Humidity: 43%
Barometer: 30.55 inHg , 1034.5 hPa
Clouds: Clear
Visibility: 10 miles , 16 km
2015/02/28 00:54 KBWI 280054Z 32005KT 10SM CLR M03/M14 A3055 RMK AO2 SLP348 T10331139
KDMW - Carroll Cnty, Maryland, USA
Distance from station: WNW 30mi, 48km
Updated: Fri, 27-Feb-2015 8:50pm EST
Partly cloudy
Partly cloudy
 Wind from WNW
Wind: WNW 8 mph , 13 km/h
Temperature: 19°F , -7°C
Wind Chill: 9°F , -13°C
Dew Point: 1°F , -17°C
Humidity: 45%
Barometer: 30.56 inHg , 1034.9 hPa
Clouds: Partly cloudy
Visibility: 10 miles , 16 km
Cloud details: Partly cloudy 9000 ft
2015/02/28 01:50 KDMW 280150Z AUTO 30007KT 10SM SCT090 M07/M17 A3056 RMK AO2
 
KNAK - Annapolis/Naval, Maryland, USA
Distance from station: S 30mi, 48km
Updated: Fri, 27-Feb-2015 7:54pm EST
Clear
Clear
 Wind from NW
Wind: NW 3 mph , 6 km/h
Temperature: 25°F , -4°C
Dew Point: 12°F , -11°C
Humidity: 59%
Barometer: 30.56 inHg , 1034.9 hPa
Clouds: Clear
Visibility: 10 miles , 16 km
2015/02/28 00:54 KNAK 280054Z AUTO 31003KT 10SM CLR M04/M11 A3056 RMK AO2 SLP351 T10391111
KW29 - Stevensville, Maryland, USA
Distance from station: SSE 31mi, 50km
Updated: Fri, 27-Feb-2015 8:49pm EST

 Wind from N
Wind: N 3 mph , 6 km/h
Temperature: 27°F , -3°C
Dew Point: 14°F , -10°C
Humidity: 59%
Barometer: 30.59 inHg , 1035.9 hPa
Visibility: 10 miles , 16 km
2015/02/28 01:49 KW29 280149Z AUTO 36003KT 10SM M03/M10 A3059 RMK AO1
 
KCGS - College Park, Maryland, USA
Distance from station: SW 38mi, 61km
Updated: Fri, 27-Feb-2015 8:45pm EST
Clear
Clear
 Wind from N
Wind: N 9 mph , 15 km/h
Temperature: 28°F , -2°C
Wind Chill: 19°F , -7°C
Dew Point: 9°F , -13°C
Humidity: 43%
Barometer: 30.60 inHg , 1036.2 hPa
Clouds: Clear
Visibility: 10 miles , 16 km
2015/02/28 01:45 KCGS 280145Z AUTO 35008KT 10SM CLR M02/M13 A3060 RMK AO1
KGAI - Gaithersburg, Maryland, USA
Distance from station: WSW 40mi, 65km
Updated: Fri, 27-Feb-2015 8:35pm EST
Clear
Clear
 Wind from NW
Wind: NW 8 mph , 13 km/h, Gust: 18 mph , 30 km/h
Temperature: 23°F , -5°C
Wind Chill: 14°F , -10°C
Dew Point: 1°F , -17°C
Humidity: 39%
Barometer: 30.60 inHg , 1036.2 hPa
Clouds: Clear
Visibility: 10 miles , 16 km
2015/02/28 01:35 KGAI 280135Z AUTO 32007G16KT 310V010 10SM CLR M05/M17 A3060 RMK AO1
 
KTHV - York, Pennsylvania, USA
Distance from station: NNW 40mi, 65km
Updated: Fri, 27-Feb-2015 7:53pm EST
Clear
Clear
 Wind from NW
Wind: NW 8 mph , 13 km/h
Temperature: 19°F , -7°C
Wind Chill: 9°F , -13°C
Dew Point: 1°F , -17°C
Humidity: 45%
Barometer: 30.56 inHg , 1034.9 hPa
Clouds: Clear
Visibility: 10 miles , 16 km
2015/02/28 00:53 KTHV 280053Z AUTO 31007KT 10SM CLR M07/M17 A3056 RMK AO2 SLP359 T10721167
KFDK - Frederick, Maryland, USA
Distance from station: W 47mi, 75km
Updated: Fri, 27-Feb-2015 8:45pm EST
Clear
Clear
 Wind from NNW
Wind: NNW 13 mph , 20 km/h
Temperature: 25°F , -4°C
Wind Chill: 13°F , -11°C
Dew Point: -0°F , -18°C
Humidity: 33%
Barometer: 30.63 inHg , 1037.3 hPa
Clouds: Clear
Visibility: 10 miles , 16 km
2015/02/28 01:45 KFDK 280145Z AUTO 34011KT 10SM CLR M04/M18 A3063 RMK AO2
 
KESN - Easton/Newnam, Maryland, USA
Distance from station: SSE 48mi, 78km
Updated: Fri, 27-Feb-2015 5:55pm EST
NOT Current
Clear
Clear
 Wind from N
Wind: N 6 mph , 9 km/h
Temperature: 30°F , -1°C
Wind Chill: 24°F , -4°C
Dew Point: 16°F , -9°C
Humidity: 55%
Barometer: 30.54 inHg , 1034.2 hPa
Clouds: Clear
Visibility: 10 miles , 16 km
2015/02/27 22:55 KESN 272255Z 01005KT 10SM SKC M01/M09 A3054
KDCA - Washington/Natl, Washington D.c., USA
Distance from station: SW 49mi, 79km
Updated: Fri, 27-Feb-2015 8:52pm EST
Clear
Clear
 Wind from N
Wind: N 12 mph , 19 km/h
Temperature: 28°F , -2°C
Wind Chill: 18°F , -8°C
Dew Point: 10°F , -12°C
Humidity: 47%
Barometer: 30.60 inHg , 1036.2 hPa
Clouds: Clear
Visibility: 10 miles , 16 km
2015/02/28 01:52 KDCA 280152Z 36010KT 10SM CLR M02/M12 A3060 RMK AO2 SLP362 T10171122
 
KLNS - Lancaster, Pennsylvania, USA
Distance from station: N 49mi, 79km
Updated: Fri, 27-Feb-2015 7:53pm EST
Clear
Clear
 Wind from WNW
Wind: WNW 6 mph , 9 km/h
Temperature: 19°F , -7°C
Wind Chill: 11°F , -12°C
Dew Point: 5°F , -15°C
Humidity: 53%
Barometer: 30.54 inHg , 1034.2 hPa
Clouds: Clear
Visibility: 10 miles , 16 km
2015/02/28 00:53 KLNS 280053Z 29005KT 10SM CLR M07/M15 A3054 RMK AO2 SLP349 T10671150
KILG - Wilmington, Delaware, USA
Distance from station: ENE 50mi, 81km
Updated: Fri, 27-Feb-2015 8:51pm EST
Clear
Clear
 Wind from NNW
Wind: NNW 5 mph , 7 km/h
Temperature: 19°F , -7°C
Wind Chill: 12°F , -11°C
Dew Point: 9°F , -13°C
Humidity: 63%
Barometer: 30.59 inHg , 1035.9 hPa
Clouds: Clear
Visibility: 10 miles , 16 km
2015/02/28 01:51 KILG 280151Z 33004KT 10SM CLR M07/M13 A3059 RMK AO2 SLP358 T10671128